createdAt,value
2018-01-14T00:00:48.976Z,1.60
2018-01-14T00:01:51.520Z,1.60
2018-01-14T00:02:54.105Z,1.60
2018-01-14T00:03:56.649Z,1.50
2018-01-14T00:04:59.204Z,1.50
2018-01-14T00:06:02.543Z,1.50
2018-01-14T00:07:05.087Z,1.50
2018-01-14T00:08:07.628Z,1.50
2018-01-14T00:09:10.975Z,1.60
2018-01-14T00:10:13.518Z,1.50
2018-01-14T00:11:16.126Z,1.50
2018-01-14T00:12:18.674Z,1.50
2018-01-14T00:13:21.227Z,1.50
2018-01-14T00:14:23.826Z,1.50
2018-01-14T00:15:26.370Z,1.50
2018-01-14T00:16:28.918Z,1.50
2018-01-14T00:17:31.462Z,1.50
2018-01-14T00:18:34.074Z,1.50
2018-01-14T00:19:36.657Z,1.50
2018-01-14T00:20:39.222Z,1.50
2018-01-14T00:21:41.810Z,1.50
2018-01-14T00:22:45.126Z,1.50
2018-01-14T00:23:47.701Z,1.50
2018-01-14T00:24:50.245Z,1.50
2018-01-14T00:25:52.813Z,1.50
2018-01-14T00:26:55.361Z,1.50
2018-01-14T00:27:58.773Z,1.50
2018-01-14T00:29:01.322Z,1.50
2018-01-14T00:30:03.869Z,1.50
2018-01-14T00:31:07.169Z,1.50
2018-01-14T00:32:10.483Z,1.50
2018-01-14T00:33:13.145Z,1.50
2018-01-14T00:34:15.690Z,1.50
2018-01-14T00:35:19.100Z,1.50
2018-01-14T00:36:21.641Z,1.40
2018-01-14T00:37:24.961Z,1.40
2018-01-14T00:38:27.541Z,1.40
2018-01-14T00:39:30.122Z,1.40
2018-01-14T00:40:32.668Z,1.40
2018-01-14T00:41:35.212Z,1.50
2018-01-14T00:42:37.757Z,1.40
2018-01-14T00:43:41.130Z,1.30
2018-01-14T00:44:44.446Z,1.30
2018-01-14T00:45:47.761Z,1.20
2018-01-14T00:46:50.329Z,1.20
2018-01-14T00:47:52.876Z,1.20
2018-01-14T00:48:55.456Z,1.30
2018-01-14T00:49:58.006Z,1.30
2018-01-14T00:51:00.558Z,1.20
2018-01-14T00:52:03.109Z,1.30
2018-01-14T00:53:06.430Z,1.20
2018-01-14T00:54:09.018Z,1.20
2018-01-14T00:55:11.565Z,1.20
2018-01-14T00:56:14.116Z,1.30
2018-01-14T00:57:16.669Z,1.30
2018-01-14T00:58:19.213Z,1.30
2018-01-14T00:59:22.562Z,1.40
2018-01-14T01:00:25.106Z,1.30
2018-01-14T01:01:27.693Z,1.30
2018-01-14T01:02:30.233Z,1.30
2018-01-14T01:03:32.778Z,1.30
2018-01-14T01:04:36.089Z,1.20
2018-01-14T01:05:38.630Z,1.20
2018-01-14T01:06:41.972Z,1.20
2018-01-14T01:07:44.517Z,1.20
2018-01-14T01:08:47.062Z,1.20
2018-01-14T01:09:49.637Z,1.20
2018-01-14T01:10:52.185Z,1.20
2018-01-14T01:11:54.793Z,1.30
2018-01-14T01:12:57.334Z,1.20
2018-01-14T01:13:59.882Z,1.20
2018-01-14T01:15:03.196Z,1.20
2018-01-14T01:16:05.757Z,1.20
2018-01-14T01:17:08.333Z,1.20
2018-01-14T01:18:10.908Z,1.20
2018-01-14T01:19:13.458Z,1.20
2018-01-14T01:20:16.002Z,1.20
2018-01-14T01:21:18.558Z,1.30
2018-01-14T01:22:21.954Z,1.30
2018-01-14T01:23:24.515Z,1.20
2018-01-14T01:24:27.080Z,1.20
2018-01-14T01:25:29.623Z,1.20
2018-01-14T01:26:32.170Z,1.20
2018-01-14T01:27:34.746Z,1.20
2018-01-14T01:28:37.444Z,1.20
2018-01-14T01:29:40.785Z,1.20
2018-01-14T01:30:43.433Z,1.20
2018-01-14T01:31:45.984Z,1.20
2018-01-14T01:32:48.526Z,1.10
2018-01-14T01:33:51.878Z,1.20
2018-01-14T01:34:54.421Z,1.20
2018-01-14T01:35:56.967Z,1.20
2018-01-14T01:36:59.515Z,1.10
2018-01-14T01:38:02.825Z,1.20
2018-01-14T01:39:05.431Z,1.20
2018-01-14T01:40:07.982Z,1.30
2018-01-14T01:41:10.538Z,1.30
2018-01-14T01:42:13.086Z,1.40
2018-01-14T01:43:15.662Z,1.30
2018-01-14T01:44:18.294Z,1.20
2018-01-14T01:45:20.814Z,1.30
2018-01-14T01:46:23.359Z,1.30
2018-01-14T01:47:25.909Z,1.30
2018-01-14T01:48:29.225Z,1.20
2018-01-14T01:49:31.801Z,1.20
2018-01-14T01:50:34.377Z,1.30
2018-01-14T01:51:36.927Z,1.30
2018-01-14T01:52:39.474Z,1.30
2018-01-14T01:53:42.022Z,1.20
2018-01-14T01:54:45.333Z,1.40
2018-01-14T01:55:47.915Z,1.30
2018-01-14T01:56:50.458Z,1.40
2018-01-14T01:57:52.997Z,1.40
2018-01-14T01:58:56.312Z,1.40
2018-01-14T01:59:58.862Z,1.40
2018-01-14T02:01:01.446Z,1.50
2018-01-14T02:02:04.022Z,1.40
2018-01-14T02:03:06.565Z,1.40
2018-01-14T02:04:09.114Z,1.40
2018-01-14T02:05:12.436Z,1.40
2018-01-14T02:06:15.100Z,1.40
2018-01-14T02:07:17.649Z,1.30
2018-01-14T02:08:20.211Z,1.30
2018-01-14T02:09:23.521Z,1.20
2018-01-14T02:10:26.066Z,1.20
2018-01-14T02:11:28.641Z,1.20
2018-01-14T02:12:31.230Z,1.20
2018-01-14T02:13:33.778Z,1.20
2018-01-14T02:14:36.326Z,1.20
2018-01-14T02:15:39.645Z,1.30
2018-01-14T02:16:42.189Z,1.30
2018-01-14T02:17:44.785Z,1.30
2018-01-14T02:18:48.137Z,1.40
2018-01-14T02:19:50.701Z,1.40
2018-01-14T02:20:54.009Z,1.50
2018-01-14T02:21:56.549Z,1.50
2018-01-14T02:22:59.874Z,1.50
2018-01-14T02:24:02.445Z,1.50
2018-01-14T02:25:05.046Z,1.60
2018-01-14T02:26:07.597Z,1.50
2018-01-14T02:27:10.142Z,1.50
2018-01-14T02:28:13.457Z,1.50
2018-01-14T02:29:16.006Z,1.50
2018-01-14T02:30:18.595Z,1.50
2018-01-14T02:31:21.138Z,1.50
2018-01-14T02:32:23.686Z,1.50
2018-01-14T02:33:26.265Z,1.40
2018-01-14T02:34:28.813Z,1.40
2018-01-14T02:35:31.391Z,1.30
2018-01-14T02:36:33.938Z,1.30
2018-01-14T02:37:36.486Z,1.30
2018-01-14T02:38:39.041Z,1.30
2018-01-14T02:39:41.592Z,1.30
2018-01-14T02:40:44.206Z,1.30
2018-01-14T02:41:46.756Z,1.40
2018-01-14T02:42:49.349Z,1.40
2018-01-14T02:43:51.902Z,1.40
2018-01-14T02:44:54.445Z,1.30
2018-01-14T02:45:57.789Z,1.30
2018-01-14T02:47:00.333Z,1.30
2018-01-14T02:48:02.890Z,1.20
2018-01-14T02:49:05.442Z,1.20
2018-01-14T02:50:07.993Z,1.20
2018-01-14T02:51:11.334Z,1.30
2018-01-14T02:52:13.886Z,1.20
2018-01-14T02:53:16.433Z,1.20
2018-01-14T02:54:19.023Z,1.20
2018-01-14T02:55:21.570Z,1.30
2018-01-14T02:56:24.152Z,1.30
2018-01-14T02:57:26.752Z,1.30
2018-01-14T02:58:29.301Z,1.30
2018-01-14T02:59:31.846Z,1.20
2018-01-14T03:00:34.385Z,1.20
2018-01-14T03:01:37.693Z,1.10
2018-01-14T03:02:40.301Z,1.10
2018-01-14T03:03:42.845Z,1.20
2018-01-14T03:04:45.630Z,1.10
2018-01-14T03:05:48.190Z,1.20
2018-01-14T03:06:50.746Z,1.20
2018-01-14T03:07:53.317Z,1.20
2018-01-14T03:08:55.863Z,1.20
2018-01-14T03:09:58.458Z,1.30
2018-01-14T03:11:01.010Z,1.20
2018-01-14T03:12:03.554Z,1.20
2018-01-14T03:13:06.104Z,1.10
2018-01-14T03:14:09.413Z,1.00
2018-01-14T03:15:11.997Z,1.00
2018-01-14T03:16:14.549Z,1.00
2018-01-14T03:17:17.093Z,1.10
2018-01-14T03:18:20.402Z,1.10
2018-01-14T03:19:22.965Z,1.00
2018-01-14T03:20:25.582Z,1.10
2018-01-14T03:21:28.129Z,1.10
2018-01-14T03:22:30.669Z,1.10
2018-01-14T03:23:33.210Z,1.00
2018-01-14T03:24:36.516Z,1.00
2018-01-14T03:25:39.089Z,1.00
2018-01-14T03:26:41.629Z,0.90
2018-01-14T03:27:44.984Z,1.00
2018-01-14T03:28:47.533Z,0.90
2018-01-14T03:29:50.077Z,1.00
2018-01-14T03:30:52.624Z,1.00
2018-01-14T03:31:55.172Z,1.00
2018-01-14T03:32:58.513Z,1.00
2018-01-14T03:34:01.053Z,1.00
2018-01-14T03:35:03.597Z,1.00
2018-01-14T03:36:06.910Z,1.00
2018-01-14T03:37:09.570Z,1.00
2018-01-14T03:38:12.109Z,1.00
2018-01-14T03:39:15.450Z,1.00
2018-01-14T03:40:18.001Z,1.00
2018-01-14T03:41:20.544Z,1.00
2018-01-14T03:42:23.122Z,0.90
2018-01-14T03:43:25.665Z,0.90
2018-01-14T03:44:28.978Z,0.90
2018-01-14T03:45:31.525Z,0.90
2018-01-14T03:46:34.077Z,0.90
2018-01-14T03:47:37.430Z,0.90
2018-01-14T03:48:39.978Z,0.90
2018-01-14T03:49:42.521Z,0.90
2018-01-14T03:50:45.062Z,0.90
2018-01-14T03:51:47.618Z,0.90
2018-01-14T03:52:50.457Z,0.80
2018-01-14T03:53:53.097Z,0.80
2018-01-14T03:54:55.643Z,0.90
2018-01-14T03:55:58.949Z,0.80
2018-01-14T03:57:01.493Z,0.80
2018-01-14T03:58:04.833Z,0.80
2018-01-14T03:59:07.418Z,0.80
2018-01-14T04:00:10.001Z,0.80
2018-01-14T04:01:13.315Z,0.70
2018-01-14T04:02:15.858Z,0.70
2018-01-14T04:03:19.166Z,0.80
2018-01-14T04:04:21.709Z,0.80
2018-01-14T04:05:25.052Z,0.80
2018-01-14T04:06:27.687Z,0.80
2018-01-14T04:07:30.238Z,0.90
2018-01-14T04:08:32.783Z,0.90
2018-01-14T04:09:36.216Z,0.90
2018-01-14T04:10:38.753Z,0.90
2018-01-14T04:11:42.057Z,0.90
2018-01-14T04:12:44.601Z,0.90
2018-01-14T04:13:47.905Z,0.80
2018-01-14T04:14:50.482Z,0.80
2018-01-14T04:15:53.789Z,0.80
2018-01-14T04:16:56.365Z,0.80
2018-01-14T04:17:58.912Z,0.80
2018-01-14T04:19:01.472Z,0.80
2018-01-14T04:20:04.054Z,0.80
2018-01-14T04:21:06.597Z,0.80
2018-01-14T04:22:09.141Z,0.80
2018-01-14T04:23:11.685Z,0.80
2018-01-14T04:24:15.110Z,0.80
2018-01-14T04:25:17.649Z,0.80
2018-01-14T04:26:20.962Z,0.80
2018-01-14T04:27:23.501Z,0.80
2018-01-14T04:28:26.854Z,0.80
2018-01-14T04:29:29.417Z,0.80
2018-01-14T04:30:32.047Z,0.80
2018-01-14T04:31:34.642Z,0.80
2018-01-14T04:32:37.977Z,0.80
2018-01-14T04:33:41.282Z,0.90
2018-01-14T04:34:43.825Z,0.90
2018-01-14T04:35:47.201Z,0.80
2018-01-14T04:36:50.510Z,0.80
2018-01-14T04:37:53.050Z,0.80
2018-01-14T04:38:56.362Z,0.80
2018-01-14T04:39:58.901Z,0.80
2018-01-14T04:41:02.250Z,0.90
2018-01-14T04:42:04.826Z,0.90
2018-01-14T04:43:07.376Z,0.90
2018-01-14T04:44:09.917Z,0.90
2018-01-14T04:45:12.462Z,0.90
2018-01-14T04:46:15.806Z,0.80
2018-01-14T04:47:18.349Z,0.80
2018-01-14T04:48:20.890Z,0.80
2018-01-14T04:49:23.433Z,0.80
2018-01-14T04:50:26.745Z,0.90
2018-01-14T04:51:29.333Z,0.90
2018-01-14T04:52:31.877Z,0.90
2018-01-14T04:53:34.422Z,1.00
2018-01-14T04:54:37.734Z,1.00
2018-01-14T04:55:40.280Z,1.00
2018-01-14T04:56:43.630Z,1.10
2018-01-14T04:57:46.170Z,1.00
2018-01-14T04:58:48.730Z,1.10
2018-01-14T04:59:51.269Z,1.10
2018-01-14T05:00:54.572Z,1.00
2018-01-14T05:01:57.150Z,1.00
2018-01-14T05:02:59.685Z,1.00
2018-01-14T05:04:02.994Z,1.10
2018-01-14T05:05:05.542Z,1.00
2018-01-14T05:06:08.086Z,1.00
2018-01-14T05:07:11.433Z,1.00
2018-01-14T05:08:13.974Z,1.00
2018-01-14T05:09:16.514Z,1.00
2018-01-14T05:10:19.825Z,1.10
2018-01-14T05:11:22.366Z,1.10
2018-01-14T05:12:25.710Z,1.10
2018-01-14T05:13:28.254Z,1.10
2018-01-14T05:14:30.829Z,1.10
2018-01-14T05:15:33.369Z,1.10
2018-01-14T05:16:35.909Z,1.10
2018-01-14T05:17:39.254Z,1.10
2018-01-14T05:18:41.805Z,1.10
2018-01-14T05:19:44.345Z,1.10
2018-01-14T05:20:46.895Z,1.10
2018-01-14T05:21:50.206Z,1.10
2018-01-14T05:22:52.782Z,1.10
2018-01-14T05:23:55.317Z,1.10
2018-01-14T05:24:58.653Z,1.10
2018-01-14T05:26:01.304Z,1.20
2018-01-14T05:27:03.859Z,1.10
2018-01-14T05:28:06.413Z,1.10
2018-01-14T05:29:08.998Z,1.10
2018-01-14T05:30:11.537Z,1.20
2018-01-14T05:31:14.842Z,1.20
2018-01-14T05:32:17.381Z,1.20
2018-01-14T05:33:20.686Z,1.20
2018-01-14T05:34:23.261Z,1.20
2018-01-14T05:35:25.802Z,1.20
2018-01-14T05:36:29.102Z,1.20
2018-01-14T05:37:31.642Z,1.20
2018-01-14T05:38:34.948Z,1.20
2018-01-14T05:39:37.526Z,1.20
2018-01-14T05:40:40.070Z,1.20
2018-01-14T05:41:43.381Z,1.20
2018-01-14T05:42:45.920Z,1.30
2018-01-14T05:43:49.226Z,1.20
2018-01-14T05:44:51.806Z,1.30
2018-01-14T05:45:54.345Z,1.30
2018-01-14T05:46:57.649Z,1.30
2018-01-14T05:48:00.191Z,1.30
2018-01-14T05:49:03.599Z,1.30
2018-01-14T05:50:06.194Z,1.30
2018-01-14T05:51:08.738Z,1.30
2018-01-14T05:52:11.285Z,1.30
2018-01-14T05:53:13.866Z,1.30
2018-01-14T05:54:16.407Z,1.30
2018-01-14T05:55:19.749Z,1.30
2018-01-14T05:56:22.298Z,1.30
2018-01-14T05:57:24.841Z,1.30
2018-01-14T05:58:27.381Z,1.30
2018-01-14T05:59:30.692Z,1.30
2018-01-14T06:00:33.265Z,1.30
2018-01-14T06:01:35.837Z,1.30
2018-01-14T06:02:38.379Z,1.30
2018-01-14T06:03:41.684Z,1.40
2018-01-14T06:04:44.221Z,1.40
2018-01-14T06:05:47.531Z,1.30
2018-01-14T06:06:50.109Z,1.30
2018-01-14T06:07:52.657Z,1.40
2018-01-14T06:08:55.201Z,1.40
2018-01-14T06:09:58.510Z,1.50
2018-01-14T06:11:01.054Z,1.40
2018-01-14T06:12:04.401Z,1.40
2018-01-14T06:13:06.940Z,1.40
2018-01-14T06:14:09.481Z,1.40
2018-01-14T06:15:12.034Z,1.40
2018-01-14T06:16:15.457Z,1.30
2018-01-14T06:17:17.997Z,1.30
2018-01-14T06:18:21.408Z,1.30
2018-01-14T06:19:23.950Z,1.30
2018-01-14T06:20:27.257Z,1.30
2018-01-14T06:21:29.838Z,1.30
2018-01-14T06:22:32.377Z,1.30
2018-01-14T06:23:34.925Z,1.30
2018-01-14T06:24:37.498Z,1.20
2018-01-14T06:25:40.800Z,1.20
2018-01-14T06:26:43.345Z,1.20
2018-01-14T06:27:46.658Z,1.30
2018-01-14T06:28:49.256Z,1.30
2018-01-14T06:29:51.797Z,1.30
2018-01-14T06:30:54.461Z,1.30
2018-01-14T06:31:57.001Z,1.30
2018-01-14T06:33:00.317Z,1.20
2018-01-14T06:34:02.925Z,1.20
2018-01-14T06:35:05.469Z,1.20
2018-01-14T06:36:08.019Z,1.20
2018-01-14T06:37:10.684Z,1.30
2018-01-14T06:38:13.248Z,1.30
2018-01-14T06:39:15.796Z,1.20
2018-01-14T06:40:19.109Z,1.30
2018-01-14T06:41:21.666Z,1.30
2018-01-14T06:42:24.281Z,1.30
2018-01-14T06:43:26.858Z,1.20
2018-01-14T06:44:29.410Z,1.30
2018-01-14T06:45:32.036Z,1.30
2018-01-14T06:46:34.581Z,1.30
2018-01-14T06:47:37.890Z,1.40
2018-01-14T06:48:40.470Z,1.30
2018-01-14T06:49:43.122Z,1.30
2018-01-14T06:50:45.666Z,1.20
2018-01-14T06:51:49.005Z,1.10
2018-01-14T06:52:51.546Z,1.10
2018-01-14T06:53:54.089Z,1.10
2018-01-14T06:54:56.674Z,1.20
2018-01-14T06:55:59.267Z,1.20
2018-01-14T06:57:01.809Z,1.10
2018-01-14T06:58:04.350Z,1.20
2018-01-14T06:59:07.682Z,1.20
2018-01-14T07:00:10.261Z,1.20
2018-01-14T07:01:12.830Z,1.20
2018-01-14T07:02:15.377Z,1.20
2018-01-14T07:03:17.930Z,1.10
2018-01-14T07:04:20.469Z,1.20
2018-01-14T07:05:23.818Z,1.20
2018-01-14T07:06:26.445Z,1.20
2018-01-14T07:07:29.025Z,1.20
2018-01-14T07:08:31.572Z,1.20
2018-01-14T07:09:34.145Z,1.20
2018-01-14T07:10:36.699Z,1.20
2018-01-14T07:11:39.244Z,1.20
2018-01-14T07:12:42.562Z,1.20
2018-01-14T07:13:45.223Z,1.20
2018-01-14T07:14:47.764Z,1.20
2018-01-14T07:15:51.069Z,1.10
2018-01-14T07:16:53.614Z,1.10
2018-01-14T07:17:56.926Z,1.20
2018-01-14T07:18:59.502Z,1.20
2018-01-14T07:20:02.813Z,1.30
2018-01-14T07:21:05.363Z,1.30
2018-01-14T07:22:07.952Z,1.30
2018-01-14T07:23:10.501Z,1.20
2018-01-14T07:24:13.151Z,1.20
2018-01-14T07:25:15.698Z,1.10
2018-01-14T07:26:18.245Z,1.10
2018-01-14T07:27:21.608Z,1.20
2018-01-14T07:28:24.153Z,1.20
2018-01-14T07:29:26.698Z,1.10
2018-01-14T07:30:29.242Z,1.20
2018-01-14T07:31:32.558Z,1.20
2018-01-14T07:32:35.137Z,1.30
2018-01-14T07:33:37.677Z,1.30
2018-01-14T07:34:40.222Z,1.30
2018-01-14T07:35:43.564Z,1.20
2018-01-14T07:36:46.153Z,1.30
2018-01-14T07:37:48.693Z,1.30
2018-01-14T07:38:51.342Z,1.30
2018-01-14T07:39:54.653Z,1.40
2018-01-14T07:40:57.242Z,1.40
2018-01-14T07:41:59.826Z,1.40
2018-01-14T07:43:03.169Z,1.50
2018-01-14T07:44:05.713Z,1.50
2018-01-14T07:45:08.262Z,1.50
2018-01-14T07:46:10.838Z,1.50
2018-01-14T07:47:13.386Z,1.50
2018-01-14T07:48:16.710Z,1.40
2018-01-14T07:49:19.289Z,1.40
2018-01-14T07:50:21.833Z,1.50
2018-01-14T07:51:24.405Z,1.40
2018-01-14T07:52:26.951Z,1.50
2018-01-14T07:53:29.502Z,1.50
2018-01-14T07:54:32.841Z,1.50
2018-01-14T07:55:35.382Z,1.50
2018-01-14T07:56:37.927Z,1.50
2018-01-14T07:57:40.473Z,1.50
2018-01-14T07:58:43.788Z,1.50
2018-01-14T07:59:46.365Z,1.50
2018-01-14T08:00:48.910Z,1.50
2018-01-14T08:01:51.457Z,1.40
2018-01-14T08:02:54.770Z,1.40
2018-01-14T08:03:57.350Z,1.40
2018-01-14T08:04:59.908Z,1.50
2018-01-14T08:06:02.605Z,1.50
2018-01-14T08:07:05.147Z,1.40
2018-01-14T08:08:07.761Z,1.30
2018-01-14T08:09:10.330Z,1.40
2018-01-14T08:10:12.873Z,1.40
2018-01-14T08:11:15.465Z,1.50
2018-01-14T08:12:18.006Z,1.50
2018-01-14T08:13:20.550Z,1.50
2018-01-14T08:14:23.102Z,1.50
2018-01-14T08:15:25.650Z,1.40
2018-01-14T08:16:29.065Z,1.50
2018-01-14T08:17:31.610Z,1.50
2018-01-14T08:18:34.926Z,1.40
2018-01-14T08:19:37.502Z,1.40
2018-01-14T08:20:40.043Z,1.40
2018-01-14T08:21:42.618Z,1.40
2018-01-14T08:22:45.929Z,1.40
2018-01-14T08:23:48.470Z,1.40
2018-01-14T08:24:51.058Z,1.40
2018-01-14T08:25:53.606Z,1.50
2018-01-14T08:26:56.152Z,1.50
2018-01-14T08:27:58.702Z,1.50
2018-01-14T08:29:02.012Z,1.60
2018-01-14T08:30:04.597Z,1.60
2018-01-14T08:31:07.138Z,1.70
2018-01-14T08:32:09.693Z,1.70
2018-01-14T08:33:13.014Z,1.70
2018-01-14T08:34:15.555Z,1.70
2018-01-14T08:35:18.236Z,1.70
2018-01-14T08:36:20.778Z,1.70
2018-01-14T08:37:24.091Z,1.70
2018-01-14T08:38:26.634Z,1.70
2018-01-14T08:39:29.941Z,1.70
2018-01-14T08:40:32.525Z,1.70
2018-01-14T08:41:35.076Z,1.70
2018-01-14T08:42:38.425Z,1.60
2018-01-14T08:43:41.734Z,1.60
2018-01-14T08:44:44.278Z,1.60
2018-01-14T08:45:47.589Z,1.70
2018-01-14T08:46:50.136Z,1.70
2018-01-14T08:47:52.723Z,1.60
2018-01-14T08:48:55.273Z,1.70
2018-01-14T08:49:57.835Z,1.70
2018-01-14T08:51:01.148Z,1.60
2018-01-14T08:52:03.690Z,1.60
2018-01-14T08:53:06.325Z,1.60
2018-01-14T08:54:08.875Z,1.70
2018-01-14T08:55:11.422Z,1.70
2018-01-14T08:56:14.004Z,1.60
2018-01-14T08:57:16.553Z,1.70
2018-01-14T08:58:19.093Z,1.70
2018-01-14T08:59:21.641Z,1.70
2018-01-14T09:00:24.950Z,1.60
2018-01-14T09:01:33.254Z,1.60
2018-01-14T09:02:35.803Z,1.60
2018-01-14T09:03:39.116Z,1.60
2018-01-14T09:04:41.690Z,1.60
2018-01-14T09:05:44.234Z,1.70
2018-01-14T09:06:46.781Z,1.70
2018-01-14T09:07:50.130Z,1.80
2018-01-14T09:08:52.674Z,1.80
2018-01-14T09:09:55.219Z,1.80
2018-01-14T09:10:57.768Z,1.80
2018-01-14T09:12:01.114Z,1.90
2018-01-14T09:14:12.526Z,2.00
2018-01-14T09:15:15.834Z,2.10
2018-01-14T09:16:18.410Z,2.10
2018-01-14T09:17:20.954Z,2.10
2018-01-14T09:18:24.266Z,2.10
2018-01-14T09:19:26.844Z,2.10
2018-01-14T09:20:29.389Z,2.20
2018-01-14T09:21:31.968Z,2.20
2018-01-14T09:22:34.509Z,2.00
2018-01-14T09:23:37.818Z,2.10
2018-01-14T09:24:40.368Z,2.10
2018-01-14T09:25:42.942Z,2.10
2018-01-14T09:26:45.480Z,2.00
2018-01-14T09:27:48.965Z,2.10
2018-01-14T09:28:52.274Z,2.10
2018-01-14T09:29:54.824Z,2.10
2018-01-14T09:31:03.411Z,2.20
2018-01-14T09:32:05.953Z,2.20
2018-01-14T09:33:08.497Z,2.30
2018-01-14T09:34:11.037Z,2.30
2018-01-14T09:35:13.590Z,2.40
2018-01-14T09:36:16.935Z,2.40
2018-01-14T09:37:19.485Z,2.40
2018-01-14T09:38:22.026Z,2.40
2018-01-14T09:39:24.606Z,2.40
2018-01-14T09:40:27.155Z,2.40
2018-01-14T09:41:29.753Z,2.40
2018-01-14T09:42:32.307Z,2.40
2018-01-14T09:43:34.849Z,2.40
2018-01-14T09:44:38.162Z,2.40
2018-01-14T09:45:40.725Z,2.40
2018-01-14T09:46:43.307Z,2.30
2018-01-14T09:47:45.859Z,2.30
2018-01-14T09:48:48.401Z,2.40
2018-01-14T09:49:51.729Z,2.40
2018-01-14T09:50:54.323Z,2.40
2018-01-14T09:51:56.872Z,2.40
2018-01-14T09:52:59.419Z,2.40
2018-01-14T09:54:02.443Z,2.40
2018-01-14T09:55:04.989Z,2.50
2018-01-14T09:56:07.577Z,2.50
2018-01-14T09:57:10.122Z,2.50
2018-01-14T09:58:12.710Z,2.50
2018-01-14T09:59:15.294Z,2.60
2018-01-14T10:00:17.837Z,2.70
2018-01-14T10:01:20.377Z,2.70
2018-01-14T10:02:22.918Z,2.80
2018-01-14T10:03:25.492Z,2.90
2018-01-14T10:04:28.042Z,3.00
2018-01-14T10:05:31.394Z,2.90
2018-01-14T10:06:33.939Z,2.90
2018-01-14T10:07:36.506Z,2.90
2018-01-14T10:08:39.048Z,2.90
2018-01-14T10:09:41.634Z,3.00
2018-01-14T10:10:44.177Z,3.00
2018-01-14T10:11:46.721Z,3.20
2018-01-14T10:12:49.274Z,3.20
2018-01-14T10:13:52.586Z,3.10
2018-01-14T10:14:55.162Z,3.10
2018-01-14T10:15:57.702Z,3.20
2018-01-14T10:17:01.011Z,3.10
2018-01-14T10:18:03.553Z,3.10
2018-01-14T10:19:06.877Z,3.20
2018-01-14T10:20:09.610Z,3.10
2018-01-14T10:21:12.190Z,3.20
2018-01-14T10:22:14.770Z,3.10
2018-01-14T10:23:17.318Z,3.10
2018-01-14T10:24:19.859Z,3.00
2018-01-14T10:25:23.212Z,2.90
2018-01-14T10:26:25.761Z,2.90
2018-01-14T10:27:28.306Z,3.00
2018-01-14T10:28:30.878Z,2.90
2018-01-14T10:29:33.425Z,2.90
2018-01-14T10:30:36.781Z,3.00
2018-01-14T10:31:39.320Z,3.00
2018-01-14T10:32:41.865Z,3.50
2018-01-14T10:33:44.413Z,4.10
2018-01-14T10:34:47.809Z,4.60
2018-01-14T10:35:50.436Z,4.80
2018-01-14T10:36:52.994Z,5.20
2018-01-14T10:37:55.538Z,5.90
2018-01-14T10:38:58.173Z,6.30
2018-01-14T10:40:00.722Z,6.90
2018-01-14T10:41:04.031Z,7.70
2018-01-14T10:42:06.713Z,7.70
2018-01-14T10:43:09.275Z,8.10
2018-01-14T10:44:11.865Z,7.80
2018-01-14T10:45:14.414Z,7.60
2018-01-14T10:46:17.041Z,7.90
2018-01-14T10:47:20.384Z,7.90
2018-01-14T10:48:22.930Z,7.90
2018-01-14T10:49:25.537Z,8.10
2018-01-14T10:50:28.081Z,8.00
2018-01-14T10:51:31.406Z,7.90
2018-01-14T10:52:34.717Z,8.10
2018-01-14T10:53:37.260Z,8.00
2018-01-14T10:54:40.601Z,8.80
2018-01-14T10:55:43.144Z,8.80
2018-01-14T10:56:45.693Z,9.00
2018-01-14T10:57:48.241Z,8.70
2018-01-14T10:58:51.558Z,8.80
2018-01-14T10:59:54.126Z,8.70
2018-01-14T11:00:58.612Z,8.20
2018-01-14T11:02:01.296Z,8.10
2018-01-14T11:03:03.845Z,8.00
2018-01-14T11:04:07.186Z,8.00
2018-01-14T11:05:09.765Z,7.90
2018-01-14T11:06:12.421Z,8.10
2018-01-14T11:07:14.993Z,8.40
2018-01-14T11:08:17.545Z,8.30
2018-01-14T11:09:20.089Z,8.00
2018-01-14T11:10:22.682Z,7.70
2018-01-14T11:11:25.226Z,7.70
2018-01-14T11:12:27.773Z,7.80
2018-01-14T11:13:31.086Z,7.90
2018-01-14T11:14:33.632Z,7.90
2018-01-14T11:15:36.321Z,7.80
2018-01-14T11:16:38.862Z,7.40
2018-01-14T11:17:42.173Z,6.70
2018-01-14T11:18:44.734Z,6.70
2018-01-14T11:19:47.317Z,6.50
2018-01-14T11:20:49.878Z,6.40
2018-01-14T11:21:52.423Z,6.00
2018-01-14T11:22:54.967Z,6.00
2018-01-14T11:23:57.587Z,6.40
2018-01-14T11:25:00.106Z,6.80
2018-01-14T11:26:03.445Z,6.70
2018-01-14T11:27:05.994Z,6.70
2018-01-14T11:28:08.553Z,6.50
2018-01-14T11:30:41.854Z,6.20
2018-01-14T11:31:44.427Z,6.20
2018-01-14T11:32:46.946Z,6.00
2018-01-14T11:33:50.229Z,6.20
2018-01-14T11:34:53.511Z,6.30
2018-01-14T11:35:56.027Z,6.30
2018-01-14T11:36:58.576Z,6.50
2018-01-14T11:38:01.099Z,6.50
2018-01-14T11:39:03.613Z,6.40
2018-01-14T11:40:06.143Z,6.60
2018-01-14T11:41:09.441Z,6.70
2018-01-14T11:42:12.777Z,6.60
2018-01-14T11:43:15.434Z,6.60
2018-01-14T11:44:17.978Z,6.60
2018-01-14T11:45:20.500Z,6.80
2018-01-14T11:46:23.050Z,6.50
2018-01-14T11:47:25.564Z,6.20
2018-01-14T11:48:28.072Z,6.30
2018-01-14T11:49:30.622Z,6.40
2018-01-14T11:50:33.173Z,6.50
2018-01-14T11:51:35.716Z,6.50
2018-01-14T11:52:39.022Z,6.50
2018-01-14T11:53:41.550Z,6.50
2018-01-14T11:54:44.070Z,6.50
2018-01-14T11:55:46.725Z,6.60
2018-01-14T11:56:49.238Z,6.70
2018-01-14T11:57:51.764Z,7.10
2018-01-14T11:58:54.290Z,6.90
2018-01-14T11:59:57.573Z,6.40
2018-01-14T12:01:00.890Z,6.80
2018-01-14T12:02:03.457Z,6.80
2018-01-14T12:03:05.980Z,6.80
2018-01-14T12:04:08.511Z,6.70
2018-01-14T12:05:11.037Z,6.80
2018-01-14T12:06:14.489Z,7.50
2018-01-14T12:07:17.109Z,7.50
2018-01-14T12:08:19.629Z,7.80
2018-01-14T12:09:22.144Z,7.80
2018-01-14T12:10:24.674Z,7.70
2018-01-14T12:11:27.994Z,7.10
2018-01-14T12:12:30.572Z,7.10
2018-01-14T12:13:33.851Z,7.50
2018-01-14T12:14:36.371Z,7.50
2018-01-14T12:15:38.890Z,7.20
2018-01-14T12:16:41.402Z,6.70
2018-01-14T12:17:43.951Z,6.80
2018-01-14T12:18:46.504Z,7.20
2018-01-14T12:19:49.785Z,7.50
2018-01-14T12:20:52.300Z,7.50
2018-01-14T12:21:55.592Z,7.30
2018-01-14T12:22:58.109Z,7.30
2018-01-14T12:24:00.682Z,7.20
2018-01-14T12:25:03.193Z,7.00
2018-01-14T12:26:05.711Z,7.50
2018-01-14T12:27:08.233Z,8.00
2018-01-14T12:28:10.766Z,7.80
2018-01-14T12:29:14.088Z,8.10
2018-01-14T12:30:16.601Z,8.10
2018-01-14T12:31:19.170Z,8.40
2018-01-14T12:32:22.474Z,8.40
2018-01-14T12:33:41.548Z,8.50
2018-01-14T12:34:44.106Z,8.50
2018-01-14T12:35:46.628Z,8.30
2018-01-14T12:36:49.141Z,8.30
2018-01-14T12:37:51.656Z,8.20
2018-01-14T12:38:54.223Z,8.20
2018-01-14T12:39:56.738Z,8.60
2018-01-14T12:40:59.264Z,8.60
2018-01-14T12:42:01.824Z,7.90
2018-01-14T12:43:04.336Z,8.00
2018-01-14T12:44:06.846Z,8.00
2018-01-14T12:45:09.355Z,8.20
2018-01-14T12:46:12.647Z,6.90
2018-01-14T12:47:15.969Z,7.00
2018-01-14T12:48:18.487Z,7.00
2018-01-14T12:49:21.778Z,6.90
2018-01-14T12:50:25.057Z,7.20
2018-01-14T12:51:28.342Z,7.20
2018-01-14T12:52:31.676Z,7.30
2018-01-14T12:53:34.188Z,7.20
2018-01-14T12:54:37.469Z,7.20
2018-01-14T12:55:40.755Z,7.20
2018-01-14T12:56:44.042Z,7.00
2018-01-14T12:57:47.460Z,6.60
2018-01-14T12:58:49.988Z,6.60
2018-01-14T12:59:53.272Z,6.30
2018-01-14T13:00:56.564Z,6.30
2018-01-14T13:01:59.841Z,6.40
2018-01-14T13:03:03.157Z,6.40
2018-01-14T13:04:05.670Z,6.40
2018-01-14T13:05:08.226Z,6.70
2018-01-14T13:06:10.754Z,6.70
2018-01-14T13:07:13.273Z,6.50
2018-01-14T13:08:15.968Z,6.50
2018-01-14T13:09:19.253Z,6.20
2018-01-14T13:10:21.789Z,6.20
2018-01-14T13:11:24.304Z,6.00
2018-01-14T13:12:26.814Z,5.90
2018-01-14T13:13:29.348Z,5.90
2018-01-14T13:14:31.868Z,6.00
2018-01-14T13:15:35.148Z,5.50
2018-01-14T13:16:38.441Z,5.60
2018-01-14T13:17:41.717Z,5.80
2018-01-14T13:18:45.033Z,5.80
2018-01-14T13:19:47.552Z,5.80
2018-01-14T13:20:50.065Z,6.00
2018-01-14T13:21:52.581Z,6.40
2018-01-14T13:22:55.132Z,6.40
2018-01-14T13:23:57.644Z,6.20
2018-01-14T13:25:00.166Z,6.50
2018-01-14T13:26:02.736Z,6.40
2018-01-14T13:27:05.253Z,5.90
2018-01-14T13:28:07.772Z,5.90
2018-01-14T13:29:10.293Z,5.80
2018-01-14T13:30:12.808Z,5.80
2018-01-14T13:31:15.527Z,6.20
2018-01-14T13:32:18.079Z,6.20
2018-01-14T13:33:20.605Z,6.20
2018-01-14T13:34:23.142Z,6.30
2018-01-14T13:35:25.701Z,6.20
2018-01-14T13:36:28.217Z,5.90
2018-01-14T13:37:30.848Z,5.70
2018-01-14T13:38:33.362Z,5.70
2018-01-14T13:39:36.649Z,6.00
2018-01-14T13:40:39.935Z,5.90
2018-01-14T13:41:43.215Z,6.20
2018-01-14T13:42:46.539Z,6.50
2018-01-14T13:43:49.069Z,6.50
2018-01-14T13:44:52.354Z,6.60
2018-01-14T13:45:55.649Z,6.80
2018-01-14T13:46:58.169Z,6.80
2018-01-14T13:48:00.837Z,7.10
2018-01-14T13:49:03.349Z,6.60
2018-01-14T13:50:05.869Z,6.70
2018-01-14T13:51:08.386Z,7.00
2018-01-14T13:52:10.905Z,7.10
2018-01-14T13:53:13.449Z,6.80
2018-01-14T13:54:15.969Z,6.90
2018-01-14T13:55:19.245Z,6.30
2018-01-14T13:56:22.521Z,6.20
2018-01-14T13:57:25.853Z,6.50
2018-01-14T13:58:28.365Z,6.50